Time;durP1;ratioP1;P1;durP2;ratioP2;P2;SDS_P1;SDS_P2;PMS_P1;PMS_P2;Temp;Humidity;BMP_temperature;BMP_pressure;BME280_temperature;BME280_humidity;BME280_pressure;Samples;Min_cycle;Max_cycle;Signal;HPM_P1;HPM_P2
2023/07/07 00:01:47;;;;;;;0.00;0.00;;;;;;;;;;5086337;28;20264;-75
2023/07/07 00:04:13;;;;;;;0.08;0.08;;;;;;;;;;5087080;28;20251;-74
2023/07/07 00:06:40;;;;;;;0.10;0.10;;;;;;;;;;5085819;28;20240;-75
2023/07/07 00:09:06;;;;;;;0.10;0.10;;;;;;;;;;5087749;28;20271;-75
2023/07/07 00:11:32;;;;;;;0.05;0.05;;;;;;;;;;5084790;28;20243;-76
2023/07/07 00:14:00;;;;;;;0.00;0.00;;;;;;;;;;5088340;28;20233;-75
2023/07/07 00:16:27;;;;;;;0.10;0.10;;;;;;;;;;5084178;28;20557;-75
2023/07/07 00:18:54;;;;;;;0.10;0.10;;;;;;;;;;5089123;28;20495;-75
2023/07/07 00:21:24;;;;;;;0.10;0.10;;;;;;;;;;5083005;28;20245;-75
2023/07/07 00:23:53;;;;;;;0.08;0.08;;;;;;;;;;5089607;28;20206;-75
2023/07/07 00:26:20;;;;;;;0.20;0.20;;;;;;;;;;5082848;28;20244;-75
2023/07/07 00:28:46;;;;;;;0.10;0.10;;;;;;;;;;5090099;28;20234;-75
2023/07/07 00:31:14;;;;;;;0.50;0.50;;;;;;;;;;5081958;28;20305;-75
2023/07/07 00:33:40;;;;;;;0.00;0.00;;;;;;;;;;5090901;28;20436;-76
2023/07/07 00:36:06;;;;;;;0.10;0.10;;;;;;;;;;5081254;28;20308;-75
2023/07/07 00:38:33;;;;;;;0.20;0.20;;;;;;;;;;5091739;28;20453;-75
2023/07/07 00:41:00;;;;;;;0.00;0.00;;;;;;;;;;5080148;28;20490;-75
2023/07/07 00:43:26;;;;;;;0.10;0.10;;;;;;;;;;5092525;28;20443;-75
2023/07/07 00:45:53;;;;;;;0.10;0.10;;;;;;;;;;5079381;28;20241;-75
2023/07/07 00:48:22;;;;;;;0.10;0.10;;;;;;;;;;5093132;28;20276;-75
2023/07/07 00:50:50;;;;;;;0.10;0.10;;;;;;;;;;5078618;28;20246;-75
2023/07/07 00:53:17;;;;;;;0.00;0.00;;;;;;;;;;5093684;28;20236;-76
2023/07/07 00:55:45;;;;;;;0.08;0.08;;;;;;;;;;5078124;28;20258;-75
2023/07/07 00:58:13;;;;;;;0.10;0.10;;;;;;;;;;5094306;28;20235;-76
2023/07/07 01:00:41;;;;;;;0.00;0.00;;;;;;;;;;5077257;28;20308;-75
2023/07/07 01:03:10;;;;;;;0.10;0.10;;;;;;;;;;5094781;28;20439;-75
2023/07/07 01:05:38;;;;;;;0.00;0.00;;;;;;;;;;5076834;28;20314;-76
2023/07/07 01:08:06;;;;;;;0.10;0.10;;;;;;;;;;5095076;28;20208;-76
2023/07/07 01:10:32;;;;;;;0.03;0.03;;;;;;;;;;5076493;28;20287;-75
2023/07/07 01:12:59;;;;;;;0.10;0.10;;;;;;;;;;5095733;28;20237;-76
2023/07/07 01:15:28;;;;;;;0.10;0.10;;;;;;;;;;5075428;28;20652;-75
2023/07/07 01:18:03;;;;;;;0.08;0.08;;;;;;;;;;5096298;28;20283;-76
2023/07/07 01:20:32;;;;;;;0.10;0.10;;;;;;;;;;5075822;28;20246;-75
2023/07/07 01:23:13;;;;;;;0.10;0.10;;;;;;;;;;5095680;28;20400;-76
2023/07/07 01:25:52;;;;;;;0.10;0.10;;;;;;;;;;5077667;28;20246;-76
2023/07/07 01:28:31;;;;;;;0.00;0.00;;;;;;;;;;5097128;28;20207;-76
2023/07/07 01:31:00;;;;;;;0.10;0.10;;;;;;;;;;5083431;28;20245;-76
2023/07/07 01:33:28;;;;;;;0.10;0.10;;;;;;;;;;5095966;28;20207;-75
2023/07/07 01:35:54;;;;;;;0.22;0.22;;;;;;;;;;5082656;28;20247;-76
2023/07/07 01:38:31;;;;;;;0.10;0.10;;;;;;;;;;5096618;28;20228;-76
2023/07/07 01:41:00;;;;;;;0.10;0.10;;;;;;;;;;5082989;28;20245;-76
2023/07/07 01:43:31;;;;;;;0.10;0.10;;;;;;;;;;5095696;28;20276;-76
2023/07/07 01:46:01;;;;;;;0.10;0.10;;;;;;;;;;5083142;28;20251;-76
2023/07/07 01:48:31;;;;;;;0.00;0.00;;;;;;;;;;5095547;28;20238;-76
2023/07/07 01:50:58;;;;;;;0.10;0.10;;;;;;;;;;5083111;28;20270;-76
2023/07/07 01:53:26;;;;;;;0.00;0.00;;;;;;;;;;5095878;28;20276;-75
2023/07/07 01:55:54;;;;;;;0.10;0.10;;;;;;;;;;5082238;28;20307;-75
2023/07/07 01:58:21;;;;;;;0.10;0.10;;;;;;;;;;5096189;28;20273;-76
2023/07/07 02:00:49;;;;;;;0.05;0.05;;;;;;;;;;5081211;28;20271;-75
2023/07/07 02:03:17;;;;;;;0.00;0.00;;;;;;;;;;5096832;28;20210;-76
2023/07/07 02:05:43;;;;;;;0.05;0.05;;;;;;;;;;5080644;28;20314;-75
2023/07/07 02:08:10;;;;;;;0.00;0.00;;;;;;;;;;5097545;28;20234;-76
2023/07/07 02:10:36;;;;;;;0.00;0.00;;;;;;;;;;5079896;28;20311;-75
2023/07/07 02:13:02;;;;;;;0.10;0.10;;;;;;;;;;5098045;28;20275;-76
2023/07/07 02:15:29;;;;;;;0.10;0.10;;;;;;;;;;5078891;28;20678;-75
2023/07/07 02:17:55;;;;;;;0.10;0.10;;;;;;;;;;5099245;28;20569;-76
2023/07/07 02:20:23;;;;;;;0.10;0.10;;;;;;;;;;5077734;28;20291;-75
2023/07/07 02:22:49;;;;;;;0.10;0.10;;;;;;;;;;5099794;28;20274;-76
2023/07/07 02:25:16;;;;;;;0.10;0.10;;;;;;;;;;5077044;28;20238;-75
2023/07/07 02:27:42;;;;;;;0.10;0.10;;;;;;;;;;5100776;28;20275;-76
2023/07/07 02:30:09;;;;;;;0.10;0.10;;;;;;;;;;5078818;28;20456;-75
2023/07/07 02:32:35;;;;;;;0.00;0.00;;;;;;;;;;5101315;28;20217;-76
2023/07/07 02:35:03;;;;;;;0.10;0.10;;;;;;;;;;5086139;28;20204;-76
2023/07/07 02:37:31;;;;;;;0.10;0.10;;;;;;;;;;5091097;28;20252;-76
2023/07/07 02:39:57;;;;;;;0.10;0.10;;;;;;;;;;5085903;28;20288;-76
2023/07/07 02:42:24;;;;;;;0.05;0.05;;;;;;;;;;5091209;28;20245;-76
2023/07/07 02:44:51;;;;;;;0.10;0.10;;;;;;;;;;5085635;28;20235;-76
2023/07/07 02:47:17;;;;;;;0.00;0.00;;;;;;;;;;5091114;28;20306;-76
2023/07/07 02:49:44;;;;;;;0.10;0.10;;;;;;;;;;5085540;28;20523;-76
2023/07/07 02:52:10;;;;;;;0.00;0.00;;;;;;;;;;5090912;28;20431;-75
2023/07/07 02:54:38;;;;;;;0.10;0.10;;;;;;;;;;5085787;28;20282;-76
2023/07/07 02:57:05;;;;;;;0.10;0.10;;;;;;;;;;5090320;28;20253;-76
2023/07/07 02:59:31;;;;;;;0.10;0.10;;;;;;;;;;5085473;28;20203;-75
2023/07/07 03:01:58;;;;;;;0.10;0.10;;;;;;;;;;5089360;28;20253;-76
2023/07/07 03:04:26;;;;;;;0.10;0.10;;;;;;;;;;5086559;28;20527;-76
2023/07/07 03:06:53;;;;;;;0.05;0.05;;;;;;;;;;5088724;28;20242;-75
2023/07/07 03:09:20;;;;;;;0.00;0.00;;;;;;;;;;5087272;28;20274;-76
2023/07/07 03:11:47;;;;;;;0.00;0.00;;;;;;;;;;5087546;28;20238;-76
2023/07/07 03:14:15;;;;;;;0.10;0.10;;;;;;;;;;5087709;28;20206;-76
2023/07/07 03:16:46;;;;;;;0.10;0.10;;;;;;;;;;5086947;28;20238;-75
2023/07/07 03:19:12;;;;;;;0.10;0.10;;;;;;;;;;5088060;28;20386;-76
2023/07/07 03:21:39;;;;;;;0.10;0.10;;;;;;;;;;5086584;28;20443;-76
2023/07/07 03:24:06;;;;;;;0.10;0.10;;;;;;;;;;5088693;28;20213;-76
2023/07/07 03:26:32;;;;;;;0.10;0.10;;;;;;;;;;5085730;28;20303;-76
2023/07/07 03:29:00;;;;;;;0.08;0.08;;;;;;;;;;5089498;28;20456;-76
2023/07/07 03:31:28;;;;;;;0.10;0.10;;;;;;;;;;5085033;28;20308;-76
2023/07/07 03:33:55;;;;;;;0.10;0.10;;;;;;;;;;5089916;28;20276;-76
2023/07/07 03:36:22;;;;;;;0.45;0.45;;;;;;;;;;5084062;28;20266;-76
2023/07/07 03:38:49;;;;;;;0.20;0.20;;;;;;;;;;5090547;28;20203;-76
2023/07/07 03:41:17;;;;;;;0.10;0.10;;;;;;;;;;5083227;28;20468;-76
2023/07/07 03:43:44;;;;;;;0.03;0.03;;;;;;;;;;5091218;28;20274;-75
2023/07/07 03:46:12;;;;;;;0.10;0.10;;;;;;;;;;5082549;28;20238;-76
2023/07/07 03:48:39;;;;;;;0.10;0.10;;;;;;;;;;5091330;28;20438;-76
2023/07/07 03:51:05;;;;;;;0.10;0.10;;;;;;;;;;5081834;28;20280;-76
2023/07/07 03:53:32;;;;;;;0.10;0.10;;;;;;;;;;5092386;28;20204;-76
2023/07/07 03:55:59;;;;;;;0.10;0.10;;;;;;;;;;5080612;28;20302;-75
2023/07/07 03:58:26;;;;;;;0.10;0.10;;;;;;;;;;5093181;28;20279;-76
2023/07/07 04:00:53;;;;;;;0.10;0.10;;;;;;;;;;5079686;28;20553;-75
2023/07/07 04:03:21;;;;;;;0.10;0.10;;;;;;;;;;5093694;28;20519;-76
2023/07/07 04:05:48;;;;;;;0.10;0.10;;;;;;;;;;5077329;28;20235;-76
2023/07/07 04:08:21;;;;;;;0.10;0.10;;;;;;;;;;5095527;28;20235;-76
2023/07/07 04:10:57;;;;;;;0.10;0.10;;;;;;;;;;5078886;28;20239;-75
2023/07/07 04:13:23;;;;;;;0.10;0.10;;;;;;;;;;5093356;28;20232;-75
2023/07/07 04:15:57;;;;;;;0.10;0.10;;;;;;;;;;5079086;28;20238;-75
2023/07/07 04:18:24;;;;;;;0.10;0.10;;;;;;;;;;5093332;28;20455;-75
2023/07/07 04:20:51;;;;;;;0.03;0.03;;;;;;;;;;5079307;28;20301;-76
2023/07/07 04:23:17;;;;;;;0.00;0.00;;;;;;;;;;5093978;28;20211;-76
2023/07/07 04:25:44;;;;;;;0.20;0.20;;;;;;;;;;5078048;28;20249;-75
2023/07/07 04:28:11;;;;;;;0.10;0.10;;;;;;;;;;5094739;28;20239;-76
2023/07/07 04:30:37;;;;;;;0.10;0.10;;;;;;;;;;5077222;28;20434;-76
2023/07/07 04:33:04;;;;;;;0.10;0.10;;;;;;;;;;5095264;28;20254;-76
2023/07/07 04:35:35;;;;;;;0.10;0.10;;;;;;;;;;5076508;28;20242;-76
2023/07/07 04:38:01;;;;;;;0.10;0.10;;;;;;;;;;5095970;28;20235;-75
2023/07/07 04:40:29;;;;;;;0.10;0.10;;;;;;;;;;5076090;28;20482;-76
2023/07/07 04:42:56;;;;;;;0.10;0.10;;;;;;;;;;5096466;28;20204;-76
2023/07/07 04:45:22;;;;;;;0.00;0.00;;;;;;;;;;5075162;28;20235;-76
2023/07/07 04:47:48;;;;;;;0.10;0.10;;;;;;;;;;5097173;28;20270;-77
2023/07/07 04:50:15;;;;;;;0.00;0.00;;;;;;;;;;5074031;28;20269;-75
2023/07/07 04:52:42;;;;;;;0.03;0.03;;;;;;;;;;5098191;28;20206;-76
2023/07/07 04:55:09;;;;;;;0.10;0.10;;;;;;;;;;5073371;28;20275;-75
2023/07/07 04:57:36;;;;;;;0.10;0.10;;;;;;;;;;5098606;28;20279;-76
2023/07/07 05:00:03;;;;;;;0.03;0.03;;;;;;;;;;5084291;28;20224;-76
2023/07/07 05:02:29;;;;;;;0.00;0.00;;;;;;;;;;5093152;28;20249;-75
2023/07/07 05:04:56;;;;;;;0.10;0.10;;;;;;;;;;5087566;28;20211;-76
2023/07/07 05:07:22;;;;;;;0.00;0.00;;;;;;;;;;5093010;28;20311;-76
2023/07/07 05:09:50;;;;;;;0.03;0.03;;;;;;;;;;5087671;28;20472;-75
2023/07/07 05:12:17;;;;;;;0.10;0.10;;;;;;;;;;5092863;28;20256;-76
2023/07/07 05:14:43;;;;;;;0.10;0.10;;;;;;;;;;5087609;28;20243;-76
2023/07/07 05:17:10;;;;;;;0.10;0.10;;;;;;;;;;5092868;28;20256;-76
2023/07/07 05:19:36;;;;;;;0.10;0.10;;;;;;;;;;5087242;28;20212;-75
2023/07/07 05:22:02;;;;;;;0.10;0.10;;;;;;;;;;5091714;28;20243;-76
2023/07/07 05:24:29;;;;;;;0.08;0.08;;;;;;;;;;5088152;28;20434;-76
2023/07/07 05:26:56;;;;;;;0.05;0.05;;;;;;;;;;5090966;28;20253;-75
2023/07/07 05:29:23;;;;;;;0.00;0.00;;;;;;;;;;5088769;28;20415;-75
2023/07/07 05:31:49;;;;;;;0.00;0.00;;;;;;;;;;5090072;28;20239;-75
2023/07/07 05:34:16;;;;;;;0.10;0.10;;;;;;;;;;5089536;28;20218;-75
2023/07/07 05:36:42;;;;;;;0.10;0.10;;;;;;;;;;5089107;28;20243;-75
2023/07/07 05:39:09;;;;;;;0.10;0.10;;;;;;;;;;5090020;28;20283;-75
2023/07/07 05:41:35;;;;;;;0.10;0.10;;;;;;;;;;5087964;28;20257;-75
2023/07/07 05:44:03;;;;;;;0.10;0.10;;;;;;;;;;5091204;28;20211;-75
2023/07/07 05:46:29;;;;;;;0.10;0.10;;;;;;;;;;5087226;28;20242;-75
2023/07/07 05:48:56;;;;;;;0.10;0.10;;;;;;;;;;5091410;28;20273;-75
2023/07/07 05:51:22;;;;;;;0.00;0.00;;;;;;;;;;5086119;28;20285;-75
2023/07/07 05:53:49;;;;;;;0.10;0.10;;;;;;;;;;5092536;28;20275;-75
2023/07/07 05:56:18;;;;;;;0.10;0.10;;;;;;;;;;5085115;28;20309;-76
2023/07/07 05:58:44;;;;;;;0.00;0.00;;;;;;;;;;5093216;28;20232;-75
2023/07/07 06:01:13;;;;;;;0.10;0.10;;;;;;;;;;5083881;28;20248;-75
2023/07/07 06:03:40;;;;;;;0.00;0.00;;;;;;;;;;5094098;28;20210;-75
2023/07/07 06:06:06;;;;;;;0.10;0.10;;;;;;;;;;5083661;28;20243;-75
2023/07/07 06:08:33;;;;;;;0.03;0.03;;;;;;;;;;5094404;28;20211;-76
2023/07/07 06:11:00;;;;;;;0.10;0.10;;;;;;;;;;5082164;28;20238;-75
2023/07/07 06:13:28;;;;;;;0.10;0.10;;;;;;;;;;5095261;28;20208;-76
2023/07/07 06:15:55;;;;;;;0.10;0.10;;;;;;;;;;5081958;28;20248;-75
2023/07/07 06:18:22;;;;;;;0.10;0.10;;;;;;;;;;5095763;28;20206;-76
2023/07/07 06:20:49;;;;;;;0.10;0.10;;;;;;;;;;5081065;28;20487;-75
2023/07/07 06:23:15;;;;;;;0.00;0.00;;;;;;;;;;5096345;28;20272;-76
2023/07/07 06:25:42;;;;;;;0.08;0.08;;;;;;;;;;5080497;28;20568;-76
2023/07/07 06:28:08;;;;;;;0.10;0.10;;;;;;;;;;5097240;28;20214;-76
2023/07/07 06:30:35;;;;;;;0.00;0.00;;;;;;;;;;5079474;28;20446;-76
2023/07/07 06:33:02;;;;;;;0.05;0.05;;;;;;;;;;5098095;28;20391;-76
2023/07/07 06:35:30;;;;;;;0.10;0.10;;;;;;;;;;5078361;28;21182;-76
2023/07/07 06:37:57;;;;;;;0.10;0.10;;;;;;;;;;5098774;28;20209;-75
2023/07/07 06:40:23;;;;;;;0.05;0.05;;;;;;;;;;5077524;28;20227;-75
2023/07/07 06:42:51;;;;;;;0.00;0.00;;;;;;;;;;5099455;28;20480;-76
2023/07/07 06:45:17;;;;;;;0.10;0.10;;;;;;;;;;5076842;28;20507;-75
2023/07/07 06:47:43;;;;;;;0.00;0.00;;;;;;;;;;5100070;28;20232;-76
2023/07/07 06:50:12;;;;;;;0.00;0.00;;;;;;;;;;5075609;28;20241;-75
2023/07/07 06:52:39;;;;;;;0.00;0.00;;;;;;;;;;5100620;28;20247;-76
2023/07/07 06:55:06;;;;;;;0.00;0.00;;;;;;;;;;5088900;28;20240;-72
2023/07/07 06:57:32;;;;;;;0.03;0.03;;;;;;;;;;5074048;28;20283;-71
2023/07/07 06:59:59;;;;;;;0.00;0.00;;;;;;;;;;5085226;28;20225;-71
2023/07/07 07:02:25;;;;;;;0.00;0.00;;;;;;;;;;5090874;28;20444;-72
2023/07/07 07:04:52;;;;;;;0.08;0.08;;;;;;;;;;5085238;28;20213;-72
2023/07/07 07:07:18;;;;;;;0.00;0.00;;;;;;;;;;5090595;28;20244;-71
2023/07/07 07:09:46;;;;;;;0.00;0.00;;;;;;;;;;5085375;28;20211;-71
2023/07/07 07:12:12;;;;;;;0.00;0.00;;;;;;;;;;5090502;28;20235;-73
2023/07/07 07:14:39;;;;;;;0.05;0.05;;;;;;;;;;5085226;28;20426;-71
2023/07/07 07:17:06;;;;;;;0.00;0.00;;;;;;;;;;5089828;28;20249;-72
2023/07/07 07:19:32;;;;;;;0.00;0.00;;;;;;;;;;5085124;28;20206;-72
2023/07/07 07:21:58;;;;;;;0.00;0.00;;;;;;;;;;5088944;28;20276;-71
2023/07/07 07:24:25;;;;;;;0.10;0.10;;;;;;;;;;5085619;28;20204;-72
2023/07/07 07:26:53;;;;;;;0.00;0.00;;;;;;;;;;5088119;28;20244;-72
2023/07/07 07:29:19;;;;;;;0.10;0.10;;;;;;;;;;5087018;28;20391;-71
2023/07/07 07:31:46;;;;;;;0.05;0.05;;;;;;;;;;5087208;28;20234;-72
2023/07/07 07:34:23;;;;;;;0.08;0.08;;;;;;;;;;5087559;28;20207;-71
2023/07/07 07:36:49;;;;;;;0.10;0.10;;;;;;;;;;5087566;28;20244;-71
2023/07/07 07:39:16;;;;;;;0.00;0.00;;;;;;;;;;5087241;28;20209;-72
2023/07/07 07:41:43;;;;;;;0.00;0.00;;;;;;;;;;5086542;28;20257;-72
2023/07/07 07:44:11;;;;;;;0.03;0.03;;;;;;;;;;5087654;28;20235;-72
2023/07/07 07:46:37;;;;;;;0.00;0.00;;;;;;;;;;5085829;28;20328;-73
2023/07/07 07:49:04;;;;;;;0.00;0.00;;;;;;;;;;5088288;28;20214;-72
2023/07/07 07:51:30;;;;;;;0.00;0.00;;;;;;;;;;5084801;28;20247;-72
2023/07/07 07:53:57;;;;;;;0.00;0.00;;;;;;;;;;5089303;28;20242;-71
2023/07/07 07:56:23;;;;;;;0.10;0.10;;;;;;;;;;5083610;28;20278;-69
2023/07/07 07:58:49;;;;;;;0.00;0.00;;;;;;;;;;5090226;28;20203;-72
2023/07/07 08:01:17;;;;;;;0.00;0.00;;;;;;;;;;5082822;28;20489;-71
2023/07/07 08:03:43;;;;;;;0.03;0.03;;;;;;;;;;5091004;28;20239;-71
2023/07/07 08:06:10;;;;;;;0.00;0.00;;;;;;;;;;5082191;28;20261;-71
2023/07/07 08:08:36;;;;;;;0.00;0.00;;;;;;;;;;5091777;28;20277;-72
2023/07/07 08:11:03;;;;;;;0.00;0.00;;;;;;;;;;5080938;28;20264;-70
2023/07/07 08:13:30;;;;;;;0.00;0.00;;;;;;;;;;5092349;28;20435;-71
2023/07/07 08:15:57;;;;;;;0.00;0.00;;;;;;;;;;5080266;28;20279;-72
2023/07/07 08:18:24;;;;;;;0.10;0.10;;;;;;;;;;5093254;28;20270;-71
2023/07/07 08:20:51;;;;;;;0.00;0.00;;;;;;;;;;5079483;28;20529;-71
2023/07/07 08:23:17;;;;;;;0.00;0.00;;;;;;;;;;5093688;28;20231;-70
2023/07/07 08:25:45;;;;;;;0.15;0.15;;;;;;;;;;5078629;28;20482;-70
2023/07/07 08:28:12;;;;;;;0.00;0.00;;;;;;;;;;5094707;28;20207;-70
2023/07/07 08:30:38;;;;;;;0.00;0.00;;;;;;;;;;5077692;28;20283;-71
2023/07/07 08:33:05;;;;;;;0.00;0.00;;;;;;;;;;5095432;28;20227;-71
2023/07/07 08:35:32;;;;;;;0.00;0.00;;;;;;;;;;5076366;28;20310;-72
2023/07/07 08:37:59;;;;;;;0.00;0.00;;;;;;;;;;5096277;28;20460;-72
2023/07/07 08:40:27;;;;;;;0.00;0.00;;;;;;;;;;5075579;28;20306;-72
2023/07/07 08:42:53;;;;;;;0.00;0.00;;;;;;;;;;5096711;28;20255;-72
2023/07/07 08:45:21;;;;;;;0.00;0.00;;;;;;;;;;5074798;28;20210;-72
2023/07/07 08:47:53;;;;;;;0.00;0.00;;;;;;;;;;5097591;28;20211;-72
2023/07/07 08:50:26;;;;;;;0.10;0.10;;;;;;;;;;5074783;28;20259;-72
2023/07/07 08:52:58;;;;;;;0.00;0.00;;;;;;;;;;5096801;28;20366;-72
2023/07/07 08:55:33;;;;;;;0.00;0.00;;;;;;;;;;5075721;28;20196;-72
2023/07/07 08:58:03;;;;;;;0.00;0.00;;;;;;;;;;5095895;28;20206;-72
2023/07/07 09:00:37;;;;;;;0.00;0.00;;;;;;;;;;5076137;28;20310;-72
2023/07/07 09:03:11;;;;;;;0.00;0.00;;;;;;;;;;5095311;28;20255;-72
2023/07/07 09:05:42;;;;;;;0.10;0.10;;;;;;;;;;5080447;28;20241;-76
2023/07/07 09:08:12;;;;;;;0.00;0.00;;;;;;;;;;5094611;28;20275;-76
2023/07/07 09:10:41;;;;;;;0.00;0.00;;;;;;;;;;5076717;28;20254;-76
2023/07/07 09:13:13;;;;;;;0.00;0.00;;;;;;;;;;5094904;28;20446;-76
2023/07/07 09:15:42;;;;;;;0.00;0.00;;;;;;;;;;5077408;28;20310;-76
2023/07/07 09:18:15;;;;;;;0.10;0.10;;;;;;;;;;5094580;28;20210;-77
2023/07/07 09:20:43;;;;;;;0.00;0.00;;;;;;;;;;5077758;28;20258;-77
2023/07/07 09:23:15;;;;;;;0.00;0.00;;;;;;;;;;5094285;28;20290;-77
2023/07/07 09:25:43;;;;;;;0.00;0.00;;;;;;;;;;5077266;28;20254;-76
2023/07/07 09:28:10;;;;;;;0.90;0.90;;;;;;;;;;5094613;28;20370;-76
2023/07/07 09:30:40;;;;;;;0.00;0.00;;;;;;;;;;5076575;28;20293;-76
2023/07/07 09:33:08;;;;;;;0.00;0.00;;;;;;;;;;5094549;28;20221;-77
2023/07/07 09:35:37;;;;;;;0.00;0.00;;;;;;;;;;5076540;28;20606;-76
2023/07/07 09:38:11;;;;;;;0.00;0.00;;;;;;;;;;5095055;28;20414;-76
2023/07/07 09:40:43;;;;;;;0.00;0.00;;;;;;;;;;5076767;28;20249;-76
2023/07/07 09:43:14;;;;;;;0.00;0.00;;;;;;;;;;5094396;28;20595;-76
2023/07/07 09:45:46;;;;;;;0.00;0.00;;;;;;;;;;5077234;28;20367;-76
2023/07/07 09:48:17;;;;;;;0.00;0.00;;;;;;;;;;5097660;28;20277;-76
2023/07/07 09:50:48;;;;;;;0.00;0.00;;;;;;;;;;5081341;28;20645;-76
2023/07/07 09:53:16;;;;;;;0.00;0.00;;;;;;;;;;5097298;28;20203;-76
2023/07/07 09:55:44;;;;;;;0.00;0.00;;;;;;;;;;5080877;28;20242;-76
2023/07/07 09:58:14;;;;;;;0.00;0.00;;;;;;;;;;5097647;28;20313;-77
2023/07/07 10:00:41;;;;;;;0.00;0.00;;;;;;;;;;5080601;28;20505;-76
2023/07/07 10:03:16;;;;;;;0.00;0.00;;;;;;;;;;5097974;28;20416;-76
2023/07/07 10:05:43;;;;;;;0.00;0.00;;;;;;;;;;5080621;28;20304;-77
2023/07/07 10:08:12;;;;;;;0.00;0.00;;;;;;;;;;5097590;28;20211;-77
2023/07/07 10:10:38;;;;;;;0.43;0.43;;;;;;;;;;5079899;28;20238;-76
2023/07/07 10:13:08;;;;;;;0.00;0.00;;;;;;;;;;5098080;28;20234;-77
2023/07/07 10:15:48;;;;;;;0.00;0.00;;;;;;;;;;5079696;28;20269;-76
2023/07/07 10:18:16;;;;;;;0.00;0.00;;;;;;;;;;5096662;28;20242;-77
2023/07/07 10:20:43;;;;;;;0.00;0.00;;;;;;;;;;5080389;28;20241;-76
2023/07/07 10:23:10;;;;;;;0.00;0.00;;;;;;;;;;5097316;28;20506;-76
2023/07/07 10:25:37;;;;;;;0.10;0.10;;;;;;;;;;5079554;28;20249;-76
2023/07/07 10:28:03;;;;;;;0.00;0.00;;;;;;;;;;5098111;28;20239;-77
2023/07/07 10:30:31;;;;;;;0.00;0.00;;;;;;;;;;5078804;28;20443;-77
2023/07/07 10:32:57;;;;;;;0.00;0.00;;;;;;;;;;5098840;28;20222;-77
2023/07/07 10:35:25;;;;;;;0.00;0.00;;;;;;;;;;5077955;28;20443;-77
2023/07/07 10:37:51;;;;;;;0.20;0.20;;;;;;;;;;5099487;28;20447;-77
2023/07/07 10:40:21;;;;;;;0.00;0.00;;;;;;;;;;5077023;28;20270;-76
2023/07/07 10:42:50;;;;;;;0.00;0.00;;;;;;;;;;5099799;28;20467;-76
2023/07/07 10:45:17;;;;;;;0.00;0.00;;;;;;;;;;5076454;28;20203;-76
2023/07/07 10:47:44;;;;;;;0.00;0.00;;;;;;;;;;5100438;28;20283;-77
2023/07/07 10:50:14;;;;;;;0.00;0.00;;;;;;;;;;5075677;28;20241;-76
2023/07/07 10:52:46;;;;;;;0.00;0.00;;;;;;;;;;5100521;28;20276;-76
2023/07/07 10:55:17;;;;;;;0.00;0.00;;;;;;;;;;5076133;28;20395;-76
2023/07/07 10:57:47;;;;;;;0.00;0.00;;;;;;;;;;5098720;28;20211;-76
2023/07/07 11:00:23;;;;;;;0.10;0.10;;;;;;;;;;5075546;28;20298;-76
2023/07/07 11:03:01;;;;;;;0.00;0.00;;;;;;;;;;5099263;28;20344;-76
2023/07/07 11:05:33;;;;;;;0.00;0.00;;;;;;;;;;5077535;28;20534;-76
2023/07/07 11:08:03;;;;;;;0.00;0.00;;;;;;;;;;5097792;28;20242;-76
2023/07/07 11:10:58;;;;;;;0.00;0.00;;;;;;;;;;5077686;28;20246;-76
2023/07/07 11:13:35;;;;;;;0.00;0.00;;;;;;;;;;5049871;28;20242;-76
2023/07/07 11:16:05;;;;;;;0.00;0.00;;;;;;;;;;5081748;28;20245;-77
2023/07/07 11:18:46;;;;;;;0.00;0.00;;;;;;;;;;5093473;28;20249;-76
2023/07/07 11:21:17;;;;;;;0.00;0.00;;;;;;;;;;5083384;28;20247;-77
2023/07/07 11:23:54;;;;;;;0.00;0.00;;;;;;;;;;5091272;28;20290;-76
2023/07/07 11:26:24;;;;;;;0.00;0.00;;;;;;;;;;5084055;28;20517;-76
2023/07/07 11:28:56;;;;;;;0.00;0.00;;;;;;;;;;5090940;28;20270;-77
2023/07/07 11:31:28;;;;;;;0.00;0.00;;;;;;;;;;5084065;28;20304;-77
2023/07/07 11:34:03;;;;;;;0.00;0.00;;;;;;;;;;5090284;28;20271;-77
2023/07/07 11:36:41;;;;;;;0.00;0.00;;;;;;;;;;5085269;28;20264;-77
2023/07/07 11:39:13;;;;;;;0.00;0.00;;;;;;;;;;5088380;28;20191;-77
2023/07/07 11:41:49;;;;;;;0.00;0.00;;;;;;;;;;5086338;28;20245;-76
2023/07/07 11:44:32;;;;;;;0.00;0.00;;;;;;;;;;5087188;28;20282;-77
2023/07/07 11:47:11;;;;;;;0.03;0.03;;;;;;;;;;5088536;28;20242;-76
2023/07/07 11:49:45;;;;;;;0.00;0.00;;;;;;;;;;5084406;28;20192;-76
2023/07/07 11:52:16;;;;;;;0.00;0.00;;;;;;;;;;5089919;28;20238;-77
2023/07/07 11:54:49;;;;;;;0.00;0.00;;;;;;;;;;5084313;28;20263;-77
2023/07/07 11:57:21;;;;;;;0.00;0.00;;;;;;;;;;5089986;28;20306;-77
2023/07/07 11:59:55;;;;;;;0.00;0.00;;;;;;;;;;5084421;28;20224;-77
2023/07/07 12:02:24;;;;;;;0.00;0.00;;;;;;;;;;5089617;28;20481;-77
2023/07/07 12:04:54;;;;;;;0.17;0.17;;;;;;;;;;5084221;28;20282;-77
2023/07/07 12:07:24;;;;;;;0.00;0.00;;;;;;;;;;5089784;28;20250;-77
2023/07/07 12:09:53;;;;;;;0.00;0.00;;;;;;;;;;5083563;28;20496;-76
2023/07/07 12:12:23;;;;;;;0.98;0.85;;;;;;;;;;5089585;28;20505;-78
2023/07/07 12:14:52;;;;;;;0.00;0.00;;;;;;;;;;5083941;28;20210;-76
2023/07/07 12:17:20;;;;;;;0.00;0.00;;;;;;;;;;5089710;28;20242;-77
2023/07/07 12:19:51;;;;;;;0.00;0.00;;;;;;;;;;5083888;28;20274;-77
2023/07/07 12:22:21;;;;;;;0.00;0.00;;;;;;;;;;5089374;28;20253;-77
2023/07/07 12:24:50;;;;;;;0.00;0.00;;;;;;;;;;5084147;28;20519;-77
2023/07/07 12:27:18;;;;;;;0.00;0.00;;;;;;;;;;5089339;28;20242;-77
2023/07/07 12:29:46;;;;;;;0.00;0.00;;;;;;;;;;5084032;28;20276;-77
2023/07/07 12:32:13;;;;;;;0.00;0.00;;;;;;;;;;5089240;28;20254;-77
2023/07/07 12:34:42;;;;;;;0.00;0.00;;;;;;;;;;5083985;28;20227;-77
2023/07/07 12:37:14;;;;;;;0.00;0.00;;;;;;;;;;5089200;28;20242;-77
2023/07/07 12:39:51;;;;;;;0.00;0.00;;;;;;;;;;5083697;28;20237;-77
2023/07/07 12:42:18;;;;;;;0.00;0.00;;;;;;;;;;5089107;28;20238;-77
2023/07/07 12:44:45;;;;;;;0.00;0.00;;;;;;;;;;5083850;28;20413;-77
2023/07/07 12:47:18;;;;;;;0.00;0.00;;;;;;;;;;5088906;28;20311;-77
2023/07/07 12:49:51;;;;;;;0.00;0.00;;;;;;;;;;5083500;28;20241;-77
2023/07/07 12:52:18;;;;;;;0.00;0.00;;;;;;;;;;5089227;28;20238;-77
2023/07/07 12:54:51;;;;;;;0.00;0.00;;;;;;;;;;5083455;28;20223;-76
2023/07/07 12:57:22;;;;;;;0.00;0.00;;;;;;;;;;5088970;28;20243;-77
2023/07/07 12:59:49;;;;;;;0.00;0.00;;;;;;;;;;5083611;28;20223;-77
2023/07/07 13:02:18;;;;;;;0.00;0.00;;;;;;;;;;5088898;28;20301;-77
2023/07/07 13:04:48;;;;;;;0.00;0.00;;;;;;;;;;5083333;28;20246;-77
2023/07/07 13:07:19;;;;;;;0.00;0.00;;;;;;;;;;5088785;28;20241;-75
2023/07/07 13:09:46;;;;;;;0.00;0.00;;;;;;;;;;5083679;28;20419;-77
2023/07/07 13:12:32;;;;;;;0.00;0.00;;;;;;;;;;5088821;28;20242;-77
2023/07/07 13:15:07;;;;;;;0.00;0.00;;;;;;;;;;5083592;28;20407;-77
2023/07/07 13:17:33;;;;;;;0.00;0.00;;;;;;;;;;5072163;28;20206;-77
2023/07/07 13:20:01;;;;;;;0.00;0.00;;;;;;;;;;5083293;28;20279;-77
2023/07/07 13:22:39;;;;;;;0.00;0.00;;;;;;;;;;5091871;28;20239;-77
2023/07/07 13:25:07;;;;;;;0.00;0.00;;;;;;;;;;5087468;28;20263;-77
2023/07/07 13:27:34;;;;;;;0.00;0.00;;;;;;;;;;5075843;28;20274;-77
2023/07/07 13:30:01;;;;;;;0.00;0.00;;;;;;;;;;5087398;28;20210;-77
2023/07/07 13:32:30;;;;;;;0.00;0.00;;;;;;;;;;5092512;28;20238;-77
2023/07/07 13:34:57;;;;;;;1.55;1.55;;;;;;;;;;5087341;28;20230;-77
2023/07/07 13:37:25;;;;;;;0.00;0.00;;;;;;;;;;5092515;28;20313;-75
2023/07/07 13:39:51;;;;;;;0.00;0.00;;;;;;;;;;5087018;28;20203;-77
2023/07/07 13:42:24;;;;;;;0.00;0.00;;;;;;;;;;5092448;28;20241;-76
2023/07/07 13:44:55;;;;;;;0.00;0.00;;;;;;;;;;5087048;28;20463;-76
2023/07/07 13:47:22;;;;;;;0.00;0.00;;;;;;;;;;5092401;28;20508;-76
2023/07/07 13:49:52;;;;;;;0.00;0.00;;;;;;;;;;5087018;28;20329;-76
2023/07/07 13:52:21;;;;;;;0.00;0.00;;;;;;;;;;5092389;28;20254;-77
2023/07/07 13:54:47;;;;;;;0.00;0.00;;;;;;;;;;5086570;28;20205;-76
2023/07/07 13:57:15;;;;;;;0.00;0.00;;;;;;;;;;5092062;28;20269;-76
2023/07/07 13:59:41;;;;;;;0.00;0.00;;;;;;;;;;5086829;28;20432;-77
2023/07/07 14:02:14;;;;;;;0.00;0.00;;;;;;;;;;5091910;28;20310;-77
2023/07/07 14:04:40;;;;;;;0.00;0.00;;;;;;;;;;5086329;28;20227;-77
2023/07/07 14:07:14;;;;;;;0.00;0.00;;;;;;;;;;5091672;28;20266;-76
2023/07/07 14:09:42;;;;;;;0.00;0.00;;;;;;;;;;5086434;28;20259;-77
2023/07/07 14:12:10;;;;;;;0.00;0.00;;;;;;;;;;5091829;28;20246;-76
2023/07/07 14:14:37;;;;;;;0.00;0.00;;;;;;;;;;5086262;28;20199;-77
2023/07/07 14:17:07;;;;;;;0.00;0.00;;;;;;;;;;5091005;28;20238;-76
2023/07/07 14:19:38;;;;;;;0.00;0.00;;;;;;;;;;5086171;28;20209;-73
2023/07/07 14:22:05;;;;;;;0.00;0.00;;;;;;;;;;5091304;28;20304;-77
2023/07/07 14:24:33;;;;;;;0.00;0.00;;;;;;;;;;5086489;28;20472;-77
2023/07/07 14:27:00;;;;;;;0.00;0.00;;;;;;;;;;5090370;28;20305;-77
2023/07/07 14:29:28;;;;;;;0.00;0.00;;;;;;;;;;5087222;28;20403;-77
2023/07/07 14:31:58;;;;;;;0.00;0.00;;;;;;;;;;5089235;28;20305;-76
2023/07/07 14:34:24;;;;;;;0.00;0.00;;;;;;;;;;5087444;28;20207;-77
2023/07/07 14:36:51;;;;;;;1.08;1.08;;;;;;;;;;5088973;28;20302;-77
2023/07/07 14:39:23;;;;;;;0.00;0.00;;;;;;;;;;5088270;28;20448;-76
2023/07/07 14:41:51;;;;;;;0.00;0.00;;;;;;;;;;5088728;28;20245;-77
2023/07/07 14:44:36;;;;;;;0.00;0.00;;;;;;;;;;5088141;28;20264;-76
2023/07/07 14:47:03;;;;;;;0.10;0.10;;;;;;;;;;5090439;28;20471;-76
2023/07/07 14:49:29;;;;;;;0.00;0.00;;;;;;;;;;5086002;28;20271;-76
2023/07/07 14:51:57;;;;;;;0.00;0.00;;;;;;;;;;5089385;28;20305;-76